Time;durP1;ratioP1;P1;durP2;ratioP2;P2;SDS_P1;SDS_P2;PMS_P1;PMS_P2;Temp;Humidity;BMP_temperature;BMP_pressure;BME280_temperature;BME280_humidity;BME280_pressure;Samples;Min_cycle;Max_cycle;Signal;HPM_P1;HPM_P2
2022/07/21 00:00:55;;;;;;;10.50;8.65;;;20.80;99.90;;;;;;5032545;28;25060;-63
2022/07/21 00:03:21;;;;;;;8.65;7.68;;;20.80;99.90;;;;;;5036695;28;25160;-62
2022/07/21 00:05:46;;;;;;;9.65;8.13;;;20.80;99.90;;;;;;5038300;28;25063;-63
2022/07/21 00:08:13;;;;;;;10.30;8.82;;;20.70;99.90;;;;;;5043695;28;25143;-63
2022/07/21 00:10:39;;;;;;;11.15;8.77;;;20.80;99.90;;;;;;5064039;28;25052;-64
2022/07/21 00:13:04;;;;;;;11.05;8.60;;;20.70;99.90;;;;;;5052265;28;25092;-63
2022/07/21 00:15:30;;;;;;;12.20;9.40;;;20.70;99.90;;;;;;5048353;28;25152;-62
2022/07/21 00:17:57;;;;;;;15.57;12.40;;;20.80;99.90;;;;;;5047609;28;25078;-64
2022/07/21 00:20:23;;;;;;;18.08;12.60;;;20.70;99.90;;;;;;5040995;28;25048;-62
2022/07/21 00:22:49;;;;;;;16.90;12.52;;;20.60;99.90;;;;;;5047248;28;25084;-63
2022/07/21 00:25:15;;;;;;;14.02;11.23;;;20.60;99.90;;;;;;5051029;28;25099;-64
2022/07/21 00:27:42;;;;;;;16.40;12.07;;;20.70;99.90;;;;;;5045658;28;25149;-63
2022/07/21 00:30:09;;;;;;;20.00;12.52;;;20.80;99.90;;;;;;5049515;28;25044;-63
2022/07/21 00:32:34;;;;;;;15.82;12.00;;;20.90;99.90;;;;;;5049501;28;25090;-63
2022/07/21 00:35:00;;;;;;;14.77;11.63;;;20.80;99.90;;;;;;5054289;28;25098;-63
2022/07/21 00:37:27;;;;;;;15.40;12.93;;;20.80;99.90;;;;;;5053089;28;25155;-63
2022/07/21 00:39:53;;;;;;;16.10;12.98;;;20.80;99.90;;;;;;5050090;28;25093;-63
2022/07/21 00:42:30;;;;;;;17.13;12.93;;;20.80;99.90;;;;;;5061434;28;25081;-62
2022/07/21 00:44:56;;;;;;;15.98;12.15;;;20.80;99.90;;;;;;5040937;28;25113;-62
2022/07/21 00:47:26;;;;;;;14.15;11.77;;;20.80;99.90;;;;;;5046132;28;25080;-63
2022/07/21 00:49:52;;;;;;;15.98;12.13;;;20.90;99.90;;;;;;5041975;28;25088;-64
2022/07/21 00:52:19;;;;;;;14.85;12.32;;;20.90;99.90;;;;;;5043866;28;25378;-63
2022/07/21 00:54:45;;;;;;;14.65;12.40;;;20.90;99.90;;;;;;5042576;28;25076;-63
2022/07/21 00:57:11;;;;;;;13.32;11.98;;;20.90;99.90;;;;;;5047444;28;25080;-62
2022/07/21 00:59:37;;;;;;;18.50;12.85;;;20.90;99.90;;;;;;5045581;28;25077;-61
2022/07/21 01:02:03;;;;;;;17.17;12.63;;;20.80;99.90;;;;;;5045835;28;25133;-63
2022/07/21 01:04:29;;;;;;;16.30;13.18;;;20.80;99.90;;;;;;5036468;28;25148;-63
2022/07/21 01:06:55;;;;;;;14.98;12.38;;;20.90;99.90;;;;;;5048092;28;25054;-64
2022/07/21 01:09:21;;;;;;;14.43;12.65;;;20.90;99.90;;;;;;5052684;28;25110;-63
2022/07/21 01:11:47;;;;;;;15.10;12.07;;;21.00;99.90;;;;;;5047625;28;25076;-63
2022/07/21 01:14:13;;;;;;;14.82;12.52;;;20.90;99.90;;;;;;5058836;28;25054;-63
2022/07/21 01:16:40;;;;;;;14.02;12.63;;;20.80;99.90;;;;;;5060566;28;25050;-63
2022/07/21 01:19:06;;;;;;;16.95;13.85;;;20.90;99.90;;;;;;5039334;28;25149;-63
2022/07/21 01:21:36;;;;;;;17.48;13.95;;;20.70;99.90;;;;;;5053839;28;25089;-63
2022/07/21 01:24:03;;;;;;;18.23;14.13;;;20.70;99.90;;;;;;5050445;28;25066;-64
2022/07/21 01:26:30;;;;;;;14.60;12.88;;;20.80;99.90;;;;;;5041771;28;25086;-65
2022/07/21 01:28:57;;;;;;;18.70;14.75;;;20.80;99.90;;;;;;5035322;28;24795;-63
2022/07/21 01:31:23;;;;;;;18.08;14.32;;;20.80;99.90;;;;;;5035967;28;25070;-63
2022/07/21 01:33:49;;;;;;;14.93;13.43;;;20.80;99.90;;;;;;5046113;28;25089;-63
2022/07/21 01:36:15;;;;;;;16.58;13.95;;;20.80;99.90;;;;;;5045901;28;25092;-63
2022/07/21 01:41:36;;;;;;;15.73;14.05;;;20.80;99.90;;;;;;5043589;28;25076;-64
2022/07/21 01:44:07;;;;;;;18.60;14.32;;;20.70;99.90;;;;;;5038910;28;25075;-63
2022/07/21 01:46:37;;;;;;;16.95;14.30;;;20.60;99.90;;;;;;5038963;28;25070;-63
2022/07/21 01:49:03;;;;;;;16.15;14.05;;;20.60;99.90;;;;;;5059749;28;25055;-63
2022/07/21 01:51:29;;;;;;;19.67;14.80;;;20.60;99.90;;;;;;5041157;28;25091;-64
2022/07/21 01:53:55;;;;;;;18.58;15.40;;;20.60;99.90;;;;;;5047999;28;25158;-64
2022/07/21 01:56:22;;;;;;;19.80;15.73;;;20.60;99.90;;;;;;5037884;28;25062;-63
2022/07/21 01:58:51;;;;;;;16.33;14.55;;;20.60;99.90;;;;;;5054125;28;25088;-64
2022/07/21 02:01:18;;;;;;;21.15;16.60;;;20.70;99.90;;;;;;5041292;28;25054;-62
2022/07/21 02:03:45;;;;;;;27.20;16.98;;;20.70;99.90;;;;;;5043116;28;25089;-63
2022/07/21 02:06:11;;;;;;;18.65;16.52;;;20.60;99.90;;;;;;5044312;28;25082;-63
2022/07/21 02:08:37;;;;;;;21.77;16.98;;;20.60;99.90;;;;;;5041385;28;25067;-63
2022/07/21 02:11:05;;;;;;;18.50;16.42;;;20.60;99.90;;;;;;5042055;28;25080;-64
2022/07/21 02:13:31;;;;;;;17.25;14.85;;;20.60;99.90;;;;;;5052038;28;25080;-63
2022/07/21 02:15:56;;;;;;;21.83;16.98;;;20.70;99.90;;;;;;5045322;28;25091;-63
2022/07/21 02:18:22;;;;;;;19.90;16.88;;;20.70;99.90;;;;;;5052792;28;25155;-64
2022/07/21 02:20:48;;;;;;;19.02;16.38;;;20.60;99.90;;;;;;5063476;28;25146;-65
2022/07/21 02:23:14;;;;;;;22.08;16.20;;;20.60;99.90;;;;;;5048509;28;25109;-63
2022/07/21 02:25:40;;;;;;;21.85;17.35;;;20.60;99.90;;;;;;5045019;28;25175;-63
2022/07/21 02:28:06;;;;;;;19.52;17.23;;;20.60;99.90;;;;;;5046985;28;25100;-64
2022/07/21 02:30:31;;;;;;;21.48;15.82;;;20.60;99.90;;;;;;5045334;28;25072;-64
2022/07/21 02:32:57;;;;;;;21.83;17.95;;;20.60;99.90;;;;;;5042255;28;25048;-64
2022/07/21 02:35:23;;;;;;;19.40;17.05;;;20.60;99.90;;;;;;5030590;28;25055;-64
2022/07/21 02:37:49;;;;;;;23.75;17.63;;;20.60;99.90;;;;;;5045621;28;25045;-64
2022/07/21 02:40:14;;;;;;;22.10;17.73;;;20.60;99.90;;;;;;5047442;28;25176;-63
2022/07/21 02:42:40;;;;;;;22.20;17.85;;;20.60;99.90;;;;;;5041529;28;25139;-63
2022/07/21 02:45:07;;;;;;;22.30;18.88;;;20.50;99.90;;;;;;5045128;28;25069;-62
2022/07/21 02:47:33;;;;;;;23.27;20.08;;;20.50;99.90;;;;;;5042831;28;25054;-63
2022/07/21 02:49:58;;;;;;;23.20;19.13;;;20.40;99.90;;;;;;5045332;28;25147;-63
2022/07/21 02:52:24;;;;;;;26.70;20.30;;;20.40;99.90;;;;;;5041918;28;25107;-63
2022/07/21 02:54:49;;;;;;;25.23;19.17;;;20.40;99.90;;;;;;5054087;28;25051;-63
2022/07/21 02:57:15;;;;;;;23.25;19.55;;;20.50;99.90;;;;;;5052850;28;25106;-63
2022/07/21 02:59:40;;;;;;;22.52;19.27;;;20.50;99.90;;;;;;5052283;28;25070;-64
2022/07/21 03:02:06;;;;;;;22.65;19.88;;;20.50;99.90;;;;;;5045350;28;25069;-62
2022/07/21 03:04:31;;;;;;;25.52;20.38;;;20.50;99.90;;;;;;5054703;28;25140;-63
2022/07/21 03:06:57;;;;;;;26.67;21.63;;;20.50;99.90;;;;;;5046238;28;25150;-63
2022/07/21 03:09:22;;;;;;;23.60;19.95;;;20.50;99.90;;;;;;5037545;28;25058;-63
2022/07/21 03:11:48;;;;;;;26.90;21.90;;;20.50;99.90;;;;;;5042830;28;25071;-62
2022/07/21 03:14:13;;;;;;;28.83;23.20;;;20.50;99.90;;;;;;5046320;28;25091;-63
2022/07/21 03:16:39;;;;;;;29.35;23.15;;;20.40;99.90;;;;;;5045791;28;25070;-63
2022/07/21 03:19:04;;;;;;;27.70;23.73;;;20.40;99.90;;;;;;5047905;28;25109;-63
2022/07/21 03:21:30;;;;;;;29.40;24.13;;;20.50;99.90;;;;;;5038615;28;25064;-64
2022/07/21 03:23:56;;;;;;;28.48;21.98;;;20.40;99.90;;;;;;5043962;28;25158;-62
2022/07/21 03:26:21;;;;;;;31.35;23.02;;;20.50;99.90;;;;;;5048149;28;25058;-63
2022/07/21 03:28:47;;;;;;;27.27;22.63;;;20.50;99.90;;;;;;5047449;28;25072;-62
2022/07/21 03:31:12;;;;;;;31.40;24.23;;;20.40;99.90;;;;;;5047919;28;25160;-62
2022/07/21 03:33:38;;;;;;;31.83;25.13;;;20.40;99.90;;;;;;5044189;28;25110;-63
2022/07/21 03:36:04;;;;;;;31.95;25.20;;;20.30;99.90;;;;;;5047507;28;25052;-63
2022/07/21 03:38:29;;;;;;;27.77;23.40;;;20.30;99.90;;;;;;5047983;28;25099;-63
2022/07/21 03:40:55;;;;;;;31.15;24.27;;;20.20;99.90;;;;;;5045004;28;25140;-64
2022/07/21 03:43:21;;;;;;;27.42;20.98;;;20.20;99.90;;;;;;5035334;28;25060;-63
2022/07/21 03:45:46;;;;;;;28.58;21.88;;;20.30;99.90;;;;;;5041843;28;25059;-62
2022/07/21 03:48:12;;;;;;;31.88;23.40;;;20.30;99.90;;;;;;5046036;28;25080;-61
2022/07/21 03:50:40;;;;;;;33.53;24.45;;;20.30;99.90;;;;;;5039253;28;25093;-64
2022/07/21 03:53:07;;;;;;;30.77;22.92;;;20.20;99.90;;;;;;5047063;28;25155;-64
2022/07/21 03:55:32;;;;;;;29.13;21.80;;;20.20;99.90;;;;;;5043488;28;25060;-64
2022/07/21 03:58:01;;;;;;;26.05;20.60;;;20.30;99.90;;;;;;5048669;28;25129;-63
2022/07/21 04:00:46;;;;;;;27.10;19.77;;;20.30;99.90;;;;;;5045212;28;25054;-64
2022/07/21 04:03:12;;;;;;;29.17;20.58;;;20.30;99.90;;;;;;5070445;28;25069;-63
2022/07/21 04:05:40;;;;;;;30.88;21.40;;;20.40;99.90;;;;;;5048602;28;25106;-63
2022/07/21 04:08:06;;;;;;;29.98;20.65;;;20.30;99.90;;;;;;5035374;28;25158;-63
2022/07/21 04:10:34;;;;;;;27.85;19.95;;;20.30;99.90;;;;;;5029992;28;25132;-63
2022/07/21 04:13:03;;;;;;;32.50;22.10;;;20.30;99.90;;;;;;5028406;28;25064;-63
2022/07/21 04:15:29;;;;;;;27.08;20.25;;;20.40;99.90;;;;;;5032413;28;25078;-64
2022/07/21 04:17:55;;;;;;;25.10;18.83;;;20.40;99.90;;;;;;5036857;28;25066;-63
2022/07/21 04:20:21;;;;;;;25.55;20.02;;;20.50;99.90;;;;;;5035518;28;25091;-64
2022/07/21 04:22:49;;;;;;;25.98;17.48;;;20.50;99.90;;;;;;5034539;28;25137;-62
2022/07/21 04:25:16;;;;;;;29.13;19.65;;;20.50;99.90;;;;;;5037511;28;25130;-64
2022/07/21 04:27:42;;;;;;;27.83;19.63;;;20.50;99.90;;;;;;5042945;28;25087;-64
2022/07/21 04:30:10;;;;;;;25.02;19.80;;;20.50;99.90;;;;;;5038475;28;25171;-63
2022/07/21 04:32:36;;;;;;;28.55;19.10;;;20.50;99.90;;;;;;5046386;28;25134;-64
2022/07/21 04:35:03;;;;;;;30.77;19.95;;;20.50;99.90;;;;;;5049180;28;25089;-65
2022/07/21 04:37:29;;;;;;;25.25;18.13;;;20.50;99.90;;;;;;5050211;28;25076;-63
2022/07/21 04:39:55;;;;;;;29.73;18.63;;;20.50;99.90;;;;;;5048585;28;25064;-64
2022/07/21 04:42:20;;;;;;;26.45;18.70;;;20.50;99.90;;;;;;5048585;28;25071;-63
2022/07/21 04:44:46;;;;;;;28.38;19.67;;;20.30;99.90;;;;;;5042387;28;25130;-63
2022/07/21 04:47:11;;;;;;;29.08;19.98;;;20.30;99.90;;;;;;5036016;28;25067;-64
2022/07/21 04:49:37;;;;;;;29.13;20.05;;;20.30;99.90;;;;;;5048204;28;25125;-63
2022/07/21 04:52:03;;;;;;;38.85;21.52;;;20.20;99.90;;;;;;5048342;28;25094;-64
2022/07/21 04:54:28;;;;;;;33.38;21.20;;;20.20;99.90;;;;;;5045116;28;25092;-63
2022/07/21 04:56:55;;;;;;;30.35;21.33;;;20.20;99.90;;;;;;5048258;28;25060;-63
2022/07/21 04:59:20;;;;;;;32.78;21.00;;;20.20;99.90;;;;;;5053638;28;25075;-63
2022/07/21 05:01:46;;;;;;;32.90;20.30;;;20.20;99.90;;;;;;5048036;28;25075;-63
2022/07/21 05:04:12;;;;;;;31.25;21.83;;;20.30;99.90;;;;;;5044021;28;25079;-64
2022/07/21 05:06:37;;;;;;;29.83;20.25;;;20.30;99.90;;;;;;5046065;28;25107;-64
2022/07/21 05:09:03;;;;;;;38.05;22.33;;;20.30;99.90;;;;;;5043876;28;25056;-63
2022/07/21 05:11:29;;;;;;;33.63;20.48;;;20.30;99.90;;;;;;5049743;28;25087;-63
2022/07/21 05:13:55;;;;;;;33.75;23.10;;;20.20;99.90;;;;;;5041235;28;25060;-64
2022/07/21 05:16:21;;;;;;;33.45;21.75;;;20.30;99.90;;;;;;5034634;28;25057;-62
2022/07/21 05:18:47;;;;;;;32.70;19.92;;;20.20;99.90;;;;;;5046196;28;25066;-63
2022/07/21 05:21:12;;;;;;;41.03;22.73;;;20.30;99.90;;;;;;5029989;28;25072;-64
2022/07/21 05:23:38;;;;;;;39.22;24.02;;;20.30;99.90;;;;;;5045814;28;25078;-64
2022/07/21 05:26:03;;;;;;;35.17;22.17;;;20.30;99.90;;;;;;5050530;28;25081;-64
2022/07/21 05:28:29;;;;;;;36.90;23.25;;;20.30;99.90;;;;;;5038280;28;25086;-63
2022/07/21 05:30:55;;;;;;;38.40;21.98;;;20.30;99.90;;;;;;5038439;28;25052;-62
2022/07/21 05:33:21;;;;;;;35.83;23.77;;;20.40;99.90;;;;;;5039330;28;25060;-64
2022/07/21 05:35:46;;;;;;;38.28;23.08;;;20.40;99.90;;;;;;5040369;28;25080;-63
2022/07/21 05:38:12;;;;;;;42.75;25.10;;;20.50;99.90;;;;;;5039633;28;25163;-63
2022/07/21 05:40:38;;;;;;;41.75;25.83;;;20.50;99.90;;;;;;5037203;28;25062;-63
2022/07/21 05:43:03;;;;;;;50.40;26.13;;;20.60;99.90;;;;;;5032286;28;25067;-64
2022/07/21 05:45:29;;;;;;;40.55;26.98;;;20.50;99.90;;;;;;5030725;28;25136;-64
2022/07/21 05:47:54;;;;;;;42.53;27.00;;;20.50;99.90;;;;;;5031907;28;25082;-63
2022/07/21 05:50:20;;;;;;;42.72;27.13;;;20.50;99.90;;;;;;5035276;28;25107;-62
2022/07/21 05:52:46;;;;;;;45.72;28.50;;;20.50;99.90;;;;;;5040622;28;25145;-62
2022/07/21 05:55:12;;;;;;;54.28;29.08;;;20.50;99.90;;;;;;5035852;28;25148;-63
2022/07/21 05:57:38;;;;;;;54.70;29.50;;;20.50;99.90;;;;;;5037090;28;25087;-63
2022/07/21 06:00:05;;;;;;;57.08;30.23;;;20.50;99.90;;;;;;5045464;28;25064;-64
2022/07/21 06:02:31;;;;;;;49.90;30.15;;;20.50;99.90;;;;;;5042639;28;25069;-62
2022/07/21 06:04:57;;;;;;;57.92;30.58;;;20.50;99.90;;;;;;5049732;28;25158;-62
2022/07/21 06:07:23;;;;;;;53.95;29.92;;;20.50;99.90;;;;;;5052612;28;25111;-63
2022/07/21 06:09:48;;;;;;;55.42;28.83;;;20.60;99.90;;;;;;5062251;28;25161;-62
2022/07/21 06:12:14;;;;;;;50.40;30.52;;;20.60;99.90;;;;;;5039256;28;25092;-63
2022/07/21 06:14:40;;;;;;;43.85;27.77;;;20.60;99.90;;;;;;5033954;28;25066;-63
2022/07/21 06:17:06;;;;;;;51.28;29.30;;;20.60;99.90;;;;;;5047863;28;25069;-63
2022/07/21 06:19:31;;;;;;;41.00;25.80;;;20.80;99.90;;;;;;5043265;28;25065;-62
2022/07/21 06:21:57;;;;;;;46.67;27.85;;;20.80;99.90;;;;;;5046949;28;25605;-62
2022/07/21 06:24:22;;;;;;;45.35;27.17;;;20.70;99.90;;;;;;5039176;28;25070;-64
2022/07/21 06:26:49;;;;;;;43.50;26.70;;;20.70;99.90;;;;;;5046719;28;25163;-62
2022/07/21 06:29:14;;;;;;;44.58;25.67;;;20.60;99.90;;;;;;5047040;28;25082;-63
2022/07/21 06:31:40;;;;;;;48.22;28.17;;;20.70;99.90;;;;;;5050539;28;25154;-63
2022/07/21 06:34:06;;;;;;;49.15;28.83;;;20.80;99.90;;;;;;5040974;28;25136;-62
2022/07/21 06:36:31;;;;;;;48.75;28.75;;;20.70;99.90;;;;;;5034445;28;25060;-64
2022/07/21 06:38:57;;;;;;;47.25;28.95;;;20.70;99.90;;;;;;5042203;28;25117;-64
2022/07/21 06:41:23;;;;;;;38.58;27.35;;;20.70;99.90;;;;;;5040281;28;25067;-63
2022/07/21 06:43:49;;;;;;;40.92;28.10;;;20.70;99.90;;;;;;5042649;28;25098;-64
2022/07/21 06:46:14;;;;;;;43.03;26.20;;;20.80;99.90;;;;;;5045012;28;25070;-64
2022/07/21 06:48:40;;;;;;;39.58;27.38;;;20.80;99.90;;;;;;5037751;28;25140;-63
2022/07/21 06:51:06;;;;;;;40.58;28.25;;;20.80;99.90;;;;;;5036591;28;25068;-64
2022/07/21 06:53:31;;;;;;;40.60;27.33;;;20.80;99.90;;;;;;5039803;28;25072;-63
2022/07/21 06:55:57;;;;;;;39.85;28.50;;;20.90;99.90;;;;;;5033807;28;25078;-63
2022/07/21 06:58:24;;;;;;;37.60;26.25;;;21.10;99.90;;;;;;5038282;28;25079;-63
2022/07/21 07:00:51;;;;;;;44.75;29.17;;;21.30;99.90;;;;;;5039057;28;25058;-64
2022/07/21 07:03:17;;;;;;;40.00;26.95;;;21.30;99.90;;;;;;5035540;28;25052;-63
2022/07/21 07:05:44;;;;;;;43.33;28.10;;;21.20;99.90;;;;;;5031459;28;25080;-63
2022/07/21 07:08:11;;;;;;;37.95;27.75;;;21.00;99.90;;;;;;5041291;28;25118;-64
2022/07/21 07:10:37;;;;;;;45.10;29.20;;;21.00;99.90;;;;;;5045256;28;25077;-64
2022/07/21 07:13:03;;;;;;;43.85;29.88;;;21.10;99.90;;;;;;5042533;28;25086;-63
2022/07/21 07:15:29;;;;;;;44.22;31.33;;;21.10;99.90;;;;;;5030463;28;25220;-64
2022/07/21 07:17:54;;;;;;;49.13;28.67;;;21.20;99.90;;;;;;5046642;28;25059;-62
2022/07/21 07:20:20;;;;;;;42.05;26.27;;;21.30;99.90;;;;;;5038621;28;25067;-63
2022/07/21 07:22:46;;;;;;;47.83;27.48;;;21.40;99.90;;;;;;5043960;28;25071;-62
2022/07/21 07:25:16;;;;;;;42.90;27.20;;;21.40;99.90;;;;;;5032860;28;25055;-63
2022/07/21 07:27:42;;;;;;;38.60;25.38;;;21.30;99.90;;;;;;5040690;28;25052;-62
2022/07/21 07:30:08;;;;;;;40.20;25.95;;;21.40;99.90;;;;;;5034531;28;25063;-63
2022/07/21 07:32:34;;;;;;;41.38;25.30;;;21.40;99.90;;;;;;5036718;28;25052;-62
2022/07/21 07:35:00;;;;;;;38.67;22.83;;;21.50;99.90;;;;;;5039922;28;25127;-63
2022/07/21 07:37:25;;;;;;;31.65;20.83;;;21.40;99.90;;;;;;5036364;28;25059;-62
2022/07/21 07:39:51;;;;;;;24.67;16.70;;;21.40;99.90;;;;;;5036234;28;25112;-62
2022/07/21 07:42:16;;;;;;;22.98;16.55;;;21.10;99.90;;;;;;5037850;28;25078;-62
2022/07/21 07:44:42;;;;;;;21.38;15.77;;;21.30;99.90;;;;;;5036612;28;25052;-63
2022/07/21 07:47:08;;;;;;;26.23;19.55;;;21.20;99.90;;;;;;5036722;28;25074;-63
2022/07/21 07:49:33;;;;;;;26.33;20.70;;;21.20;99.90;;;;;;5036240;28;25065;-63
2022/07/21 07:51:59;;;;;;;31.27;22.25;;;21.30;99.90;;;;;;5043835;28;25070;-62
2022/07/21 07:54:24;;;;;;;33.72;22.42;;;21.40;99.90;;;;;;5047282;28;25119;-62
2022/07/21 07:56:50;;;;;;;35.10;25.88;;;21.50;99.90;;;;;;5045339;28;25061;-63
2022/07/21 07:59:16;;;;;;;41.20;26.75;;;21.40;99.90;;;;;;5048499;28;25143;-62
2022/07/21 08:01:42;;;;;;;40.58;26.42;;;21.60;99.90;;;;;;5057271;28;25096;-64
2022/07/21 08:04:07;;;;;;;32.40;22.13;;;21.40;99.90;;;;;;5041424;28;24841;-63
2022/07/21 08:06:33;;;;;;;34.25;24.85;;;21.50;99.90;;;;;;5041175;28;25073;-62
2022/07/21 08:08:58;;;;;;;37.47;24.10;;;21.60;99.90;;;;;;5038066;28;25134;-63
2022/07/21 08:11:25;;;;;;;37.55;25.10;;;21.60;99.90;;;;;;5046539;28;25100;-64
2022/07/21 08:13:50;;;;;;;36.75;24.40;;;21.60;99.90;;;;;;5040506;28;25065;-63
2022/07/21 08:16:16;;;;;;;34.53;23.75;;;21.60;99.90;;;;;;5043082;28;25058;-63
2022/07/21 08:18:43;;;;;;;38.72;24.60;;;21.60;99.90;;;;;;5038611;28;25053;-62
2022/07/21 08:21:09;;;;;;;34.90;21.13;;;21.50;99.90;;;;;;5039808;28;25096;-64
2022/07/21 08:23:34;;;;;;;38.10;23.45;;;21.80;99.90;;;;;;5050706;28;25050;-65
2022/07/21 08:26:00;;;;;;;38.65;25.45;;;21.80;99.90;;;;;;5044545;28;25095;-65
2022/07/21 08:28:26;;;;;;;36.72;24.40;;;21.70;99.90;;;;;;5042101;28;25064;-64
2022/07/21 08:30:51;;;;;;;35.53;22.20;;;22.10;99.90;;;;;;5049484;28;25060;-65
2022/07/21 08:33:17;;;;;;;29.45;19.70;;;22.00;99.90;;;;;;5038730;28;25068;-63
2022/07/21 08:35:43;;;;;;;24.27;18.13;;;22.20;99.90;;;;;;5039493;28;25065;-64
2022/07/21 08:38:11;;;;;;;27.88;18.17;;;22.10;99.90;;;;;;5035372;28;25167;-63
2022/07/21 08:40:42;;;;;;;22.60;16.70;;;22.10;99.90;;;;;;5050043;28;25110;-62
2022/07/21 08:43:09;;;;;;;25.90;16.45;;;22.40;99.90;;;;;;5046625;28;25128;-64
2022/07/21 08:45:36;;;;;;;19.75;15.10;;;22.60;99.90;;;;;;5039794;28;25103;-63
2022/07/21 08:48:02;;;;;;;16.70;13.05;;;22.40;99.90;;;;;;5038045;28;25088;-63
2022/07/21 08:50:32;;;;;;;11.63;9.93;;;22.60;99.90;;;;;;5034161;28;25123;-65
2022/07/21 08:52:58;;;;;;;11.07;8.63;;;22.80;99.90;;;;;;5049585;28;25072;-65
2022/07/21 08:55:24;;;;;;;12.90;6.80;;;22.80;99.90;;;;;;5036158;28;25053;-65
2022/07/21 08:57:50;;;;;;;9.18;6.00;;;22.50;99.90;;;;;;5040758;28;25067;-65
2022/07/21 09:00:15;;;;;;;7.45;6.25;;;22.90;99.90;;;;;;5047974;28;25068;-63
2022/07/21 09:02:41;;;;;;;7.28;5.47;;;22.50;99.90;;;;;;5058105;28;25059;-65
2022/07/21 09:05:08;;;;;;;10.35;6.07;;;22.60;99.90;;;;;;5034484;28;25088;-64
2022/07/21 09:08:06;;;;;;;10.55;5.15;;;22.70;99.90;;;;;;5035027;28;25049;-64
2022/07/21 09:10:33;;;;;;;8.27;5.13;;;22.70;99.90;;;;;;5016012;28;25088;-64
2022/07/21 09:13:03;;;;;;;8.40;5.85;;;22.20;99.90;;;;;;5037441;28;25151;-65
2022/07/21 09:15:31;;;;;;;10.95;6.50;;;22.10;99.90;;;;;;5030835;28;25091;-66
2022/07/21 09:18:12;;;;;;;11.93;6.47;;;22.00;99.90;;;;;;5034688;28;25049;-64
2022/07/21 09:20:45;;;;;;;9.35;6.75;;;22.10;99.90;;;;;;5050954;28;25131;-65
2022/07/21 09:23:14;;;;;;;14.80;7.95;;;22.10;99.90;;;;;;5039217;28;25098;-63
2022/07/21 09:25:46;;;;;;;11.02;7.80;;;22.30;99.90;;;;;;5044262;28;25052;-64
2022/07/21 09:28:17;;;;;;;15.77;9.20;;;22.10;99.90;;;;;;5047296;28;25124;-65
2022/07/21 09:30:49;;;;;;;17.33;9.13;;;22.10;99.90;;;;;;5053489;28;25056;-65
2022/07/21 09:33:32;;;;;;;14.57;8.27;;;21.80;99.90;;;;;;5048241;28;25156;-64
2022/07/21 09:36:01;;;;;;;12.15;9.00;;;21.80;99.90;;;;;;5048767;28;25074;-66
2022/07/21 09:38:28;;;;;;;19.45;10.10;;;21.90;99.90;;;;;;5035518;28;25067;-65
2022/07/21 09:40:56;;;;;;;15.32;9.23;;;21.70;99.90;;;;;;5040119;28;25098;-63
2022/07/21 09:43:41;;;;;;;12.70;8.77;;;21.80;99.90;;;;;;5039282;28;25071;-63
2022/07/21 09:46:10;;;;;;;13.50;8.80;;;21.90;99.90;;;;;;5049735;28;25108;-65
2022/07/21 09:48:37;;;;;;;17.42;8.85;;;22.00;99.90;;;;;;5038323;28;25085;-64
2022/07/21 09:51:20;;;;;;;16.67;9.52;;;21.90;99.90;;;;;;5047704;28;25175;-64
2022/07/21 09:53:57;;;;;;;13.02;9.00;;;21.70;99.90;;;;;;5044580;28;25148;-65
2022/07/21 09:56:25;;;;;;;12.15;8.18;;;21.70;99.90;;;;;;5043376;28;25076;-62
2022/07/21 09:58:53;;;;;;;17.85;8.80;;;21.50;99.90;;;;;;5039085;28;25134;-62
2022/07/21 10:01:19;;;;;;;14.75;8.93;;;21.30;99.90;;;;;;5036400;28;25076;-63
2022/07/21 10:03:47;;;;;;;10.68;8.02;;;21.00;99.90;;;;;;5042169;28;25065;-63
2022/07/21 10:06:15;;;;;;;10.27;7.35;;;20.90;99.90;;;;;;5047018;28;25088;-63
2022/07/21 10:08:41;;;;;;;14.00;8.02;;;20.80;99.90;;;;;;5040003;28;25069;-63
2022/07/21 10:11:08;;;;;;;12.50;7.85;;;20.70;99.90;;;;;;5039725;28;25063;-64
2022/07/21 10:13:34;;;;;;;10.90;7.22;;;20.70;99.90;;;;;;5040496;28;25053;-64
2022/07/21 10:16:00;;;;;;;8.35;6.75;;;20.60;99.90;;;;;;5042452;28;25077;-63
2022/07/21 10:18:37;;;;;;;8.23;6.38;;;20.50;99.90;;;;;;5048863;28;25072;-65
2022/07/21 10:21:31;;;;;;;8.40;6.22;;;20.60;99.90;;;;;;5038344;28;25134;-64
2022/07/21 10:23:57;;;;;;;10.80;6.45;;;20.50;99.90;;;;;;5031577;28;25084;-65
2022/07/21 10:26:23;;;;;;;9.63;6.45;;;20.50;99.90;;;;;;5039870;28;25061;-64
2022/07/21 10:28:49;;;;;;;11.32;6.88;;;20.60;99.90;;;;;;5036737;28;25059;-64
2022/07/21 10:31:17;;;;;;;10.40;7.15;;;20.70;99.90;;;;;;5042761;28;25081;-64
2022/07/21 10:33:45;;;;;;;13.63;8.02;;;20.80;99.90;;;;;;5039746;28;25070;-64
2022/07/21 10:36:28;;;;;;;12.88;8.70;;;20.60;99.90;;;;;;5044981;28;25078;-64
2022/07/21 10:39:06;;;;;;;11.57;7.97;;;20.80;99.90;;;;;;5034854;28;25126;-63
2022/07/21 10:41:39;;;;;;;11.52;8.38;;;20.80;99.90;;;;;;5048185;28;25135;-64
2022/07/21 10:44:27;;;;;;;13.38;8.57;;;21.00;99.90;;;;;;5043050;28;25064;-63
2022/07/21 10:47:04;;;;;;;10.68;7.43;;;21.30;99.90;;;;;;5045373;28;25096;-64
2022/07/21 10:49:41;;;;;;;9.63;6.70;;;21.20;99.90;;;;;;5041377;28;25152;-63
2022/07/21 10:52:39;;;;;;;8.13;7.32;;;21.40;99.90;;;;;;5045845;28;25071;-64
2022/07/21 10:55:23;;;;;;;12.63;8.10;;;21.40;99.90;;;;;;5040514;28;25073;-63
2022/07/21 10:58:23;;;;;;;12.05;8.25;;;21.50;99.90;;;;;;5037694;28;25127;-63
2022/07/21 11:00:51;;;;;;;9.82;7.53;;;21.50;99.90;;;;;;5045731;28;25089;-65
2022/07/21 11:03:33;;;;;;;9.10;7.07;;;21.70;99.90;;;;;;5047278;28;25131;-65
2022/07/21 11:06:17;;;;;;;7.07;6.38;;;21.80;99.90;;;;;;5049637;28;25085;-64
2022/07/21 11:08:46;;;;;;;10.88;5.20;;;21.80;99.90;;;;;;5051575;28;25088;-65
2022/07/21 11:11:12;;;;;;;7.68;5.03;;;22.00;99.90;;;;;;5044995;28;25078;-65
2022/07/21 11:13:59;;;;;;;6.53;5.53;;;21.90;99.90;;;;;;5034256;28;25072;-65
2022/07/21 11:16:48;;;;;;;5.53;4.40;;;22.20;99.90;;;;;;5040951;28;25093;-64
2022/07/21 11:19:49;;;;;;;7.45;5.10;;;21.90;99.90;;;;;;5031121;28;25144;-66
2022/07/21 11:22:28;;;;;;;7.47;4.40;;;21.80;99.90;;;;;;5037737;28;25040;-65
2022/07/21 11:25:02;;;;;;;8.98;4.70;;;21.70;99.90;;;;;;5033443;28;25066;-66
2022/07/21 11:27:30;;;;;;;12.77;5.30;;;21.80;99.90;;;;;;5049089;28;25066;-65
2022/07/21 11:29:59;;;;;;;7.45;5.07;;;21.90;99.90;;;;;;5045570;28;25173;-63
2022/07/21 11:32:26;;;;;;;5.07;4.30;;;22.30;99.90;;;;;;5038563;28;25084;-66
2022/07/21 11:34:58;;;;;;;9.45;4.57;;;22.10;99.90;;;;;;5031887;28;25070;-64
2022/07/21 11:37:33;;;;;;;;;;;22.00;99.90;;;;;;5037823;28;25132;-64
2022/07/21 11:40:00;;;;;;;8.32;3.55;;;21.80;99.90;;;;;;5048735;28;25133;-67
2022/07/21 11:42:27;;;;;;;8.95;4.03;;;21.70;99.90;;;;;;5037793;28;25103;-66
2022/07/21 11:44:53;;;;;;;7.28;3.60;;;21.70;99.90;;;;;;5049173;28;25057;-64
2022/07/21 11:47:22;;;;;;;8.77;3.63;;;21.60;99.90;;;;;;5037357;28;25101;-65
2022/07/21 11:49:51;;;;;;;7.40;3.53;;;21.70;99.90;;;;;;5040436;28;25102;-64
2022/07/21 11:52:17;;;;;;;9.40;4.00;;;21.80;99.90;;;;;;5034363;28;25119;-64
2022/07/21 11:54:51;;;;;;;9.13;3.83;;;21.70;99.90;;;;;;5044899;28;25131;-63
2022/07/21 11:57:19;;;;;;;4.68;3.40;;;21.80;99.90;;;;;;5043680;28;25141;-63
2022/07/21 11:59:46;;;;;;;9.95;3.92;;;21.80;99.90;;;;;;5038387;28;25105;-63
2022/07/21 12:02:20;;;;;;;6.85;3.53;;;22.00;99.90;;;;;;5048263;28;25077;-63
2022/07/21 12:04:55;;;;;;;7.38;3.53;;;22.00;99.90;;;;;;5044972;28;25154;-65
2022/07/21 12:07:52;;;;;;;5.97;3.42;;;22.20;99.90;;;;;;5036272;28;25055;-63
2022/07/21 12:10:28;;;;;;;4.90;3.45;;;22.20;99.90;;;;;;5030931;28;25072;-65
2022/07/21 12:13:06;;;;;;;4.78;2.95;;;22.10;99.90;;;;;;5039259;28;25095;-63
2022/07/21 12:15:34;;;;;;;7.50;3.25;;;22.10;99.90;;;;;;5042836;28;25097;-64
2022/07/21 12:18:16;;;;;;;5.28;2.67;;;22.30;99.90;;;;;;5042329;28;25069;-64
2022/07/21 12:20:43;;;;;;;;;;;22.40;99.90;;;;;;5035139;28;25046;-64
2022/07/21 12:23:26;;;;;;;5.13;2.70;;;22.30;99.90;;;;;;5027587;28;25096;-64
2022/07/21 12:25:53;;;;;;;3.08;2.38;;;22.20;99.90;;;;;;5031496;28;25085;-65
2022/07/21 12:28:18;;;;;;;6.38;2.50;;;22.20;99.90;;;;;;5039231;28;25070;-65
2022/07/21 12:30:47;;;;;;;7.53;3.00;;;22.10;99.90;;;;;;5032013;28;25064;-64
2022/07/21 12:33:16;;;;;;;7.05;3.20;;;22.10;99.90;;;;;;5032229;28;25063;-64
2022/07/21 12:35:57;;;;;;;4.07;2.78;;;22.20;99.90;;;;;;5033231;28;25062;-65
2022/07/21 12:38:34;;;;;;;6.53;3.10;;;22.20;99.90;;;;;;5033701;28;25077;-65
2022/07/21 12:41:00;;;;;;;4.72;3.17;;;22.30;99.90;;;;;;5039890;28;25101;-64